createdAt,value
2022-11-29T00:03:45.819Z,61.27623
2022-11-29T00:08:47.462Z,62.48349
2022-11-29T00:13:49.191Z,63.83408
2022-11-29T00:18:50.984Z,62.91192
2022-11-29T00:23:52.594Z,66.19652
2022-11-29T00:28:54.188Z,65.79971
2022-11-29T00:33:56.037Z,63.56695
2022-11-29T00:38:57.780Z,63.53277
2022-11-29T00:43:59.530Z,65.73853
2022-11-29T00:49:01.832Z,66.29405
2022-11-29T00:54:03.640Z,65.94638
2022-11-29T00:59:05.317Z,63.47505
2022-11-29T01:04:07.080Z,62.78179
2022-11-29T01:09:08.885Z,63.3336
2022-11-29T01:14:10.585Z,62.45263
2022-11-29T01:19:12.428Z,61.89964
2022-11-29T01:24:14.138Z,60.89261
2022-11-29T01:29:15.908Z,61.44258
2022-11-29T01:34:17.789Z,65.34326
2022-11-29T01:39:19.512Z,65.72753
2022-11-29T01:44:21.519Z,64.09123
2022-11-29T01:49:23.332Z,60.32386
2022-11-29T01:54:25.176Z,60.8212
2022-11-29T01:59:26.970Z,61.74381
2022-11-29T02:04:28.854Z,60.2245
2022-11-29T02:09:31.045Z,63.04176
2022-11-29T02:14:32.857Z,61.74606
2022-11-29T02:19:34.639Z,64.09994
2022-11-29T02:24:36.674Z,64.43771
2022-11-29T02:29:38.723Z,62.71012
2022-11-29T02:34:40.612Z,62.05807
2022-11-29T02:39:42.502Z,62.40447
2022-11-29T02:44:44.533Z,61.80458
2022-11-29T02:49:46.558Z,62.50464
2022-11-29T02:54:48.271Z,61.16222
2022-11-29T02:59:50.001Z,61.43168
2022-11-29T03:04:51.749Z,59.25963
2022-11-29T03:09:53.376Z,60.31458
2022-11-29T03:14:55.060Z,62.0145
2022-11-29T03:19:56.755Z,60.18276
2022-11-29T03:24:58.503Z,60.04499
2022-11-29T03:30:00.170Z,61.81336
2022-11-29T03:35:01.907Z,61.09331
2022-11-29T03:40:03.723Z,58.69556
2022-11-29T03:45:05.339Z,59.59116
2022-11-29T03:50:06.981Z,58.9819
2022-11-29T03:55:08.707Z,57.51508
2022-11-29T04:00:10.353Z,58.37151
2022-11-29T04:05:11.962Z,60.69841
2022-11-29T04:10:13.633Z,61.33205
2022-11-29T04:15:15.809Z,60.73598
2022-11-29T04:20:17.652Z,59.64607
2022-11-29T04:25:19.552Z,62.74739
2022-11-29T04:30:21.354Z,63.23057
2022-11-29T04:35:23.050Z,61.38034
2022-11-29T04:40:24.776Z,60.58866
2022-11-29T04:45:26.680Z,62.50062
2022-11-29T04:50:28.416Z,61.02492
2022-11-29T04:55:31.246Z,60.64868
2022-11-29T05:00:33.199Z,60.14714
2022-11-29T05:05:34.965Z,59.51506
2022-11-29T05:10:36.675Z,59.06146
2022-11-29T05:15:38.526Z,59.25595
2022-11-29T05:20:40.263Z,61.64977
2022-11-29T05:25:41.950Z,63.2607
2022-11-29T05:30:43.637Z,61.09608
2022-11-29T05:35:45.392Z,60.45505
2022-11-29T05:40:47.103Z,59.39373
2022-11-29T05:45:48.798Z,61.619
2022-11-29T05:50:50.430Z,60.35384
2022-11-29T05:55:52.043Z,58.90137
2022-11-29T06:00:53.956Z,59.9543
2022-11-29T06:05:55.632Z,58.12147
2022-11-29T06:10:57.448Z,62.31839
2022-11-29T06:15:59.293Z,61.16143
2022-11-29T06:21:01.059Z,60.47729
2022-11-29T06:26:04.228Z,60.60932
2022-11-29T06:31:06.459Z,59.5412
2022-11-29T06:36:08.345Z,60.45289
2022-11-29T06:41:10.137Z,59.9237
2022-11-29T06:46:11.918Z,58.14747
2022-11-29T06:51:13.751Z,57.10309
2022-11-29T06:56:15.516Z,58.24466
2022-11-29T07:01:17.381Z,62.60254
2022-11-29T07:06:19.036Z,59.36938
2022-11-29T07:11:20.860Z,59.27029
2022-11-29T07:16:22.752Z,58.45957
2022-11-29T07:21:24.844Z,58.16574
2022-11-29T07:26:26.798Z,59.3011
2022-11-29T07:31:28.677Z,58.15878
2022-11-29T07:36:30.447Z,58.57828
2022-11-29T07:41:32.118Z,57.32634
2022-11-29T07:46:34.093Z,57.77689
2022-11-29T07:51:35.837Z,59.19845
2022-11-29T07:56:37.497Z,59.76948
2022-11-29T08:01:39.437Z,58.64623
2022-11-29T08:06:41.176Z,62.88835
2022-11-29T08:11:42.855Z,61.21658
2022-11-29T08:16:44.611Z,61.1232
2022-11-29T08:21:46.328Z,60.90245
2022-11-29T08:26:47.969Z,62.85004
2022-11-29T08:31:49.821Z,62.16032
2022-11-29T08:36:51.595Z,60.60691
2022-11-29T08:41:53.816Z,59.07855
2022-11-29T08:46:55.602Z,63.29682
2022-11-29T08:51:57.392Z,63.00651
2022-11-29T08:57:37.351Z,61.9221
2022-11-29T09:02:40.888Z,64.44325
2022-11-29T09:07:42.774Z,58.62664
2022-11-29T09:12:44.552Z,60.9835
2022-11-29T09:17:46.306Z,60.13804
2022-11-29T09:22:48.024Z,58.63293
2022-11-29T09:27:49.823Z,57.50477
2022-11-29T09:32:51.436Z,57.78123
2022-11-29T09:37:53.265Z,57.46269
2022-11-29T09:42:54.973Z,57.53696
2022-11-29T09:47:56.728Z,58.8507
2022-11-29T09:52:58.562Z,56.16502
2022-11-29T09:58:00.299Z,57.13979
2022-11-29T10:03:01.983Z,57.01699
2022-11-29T10:08:03.685Z,56.39758
2022-11-29T10:13:05.307Z,57.01789
2022-11-29T10:18:07.109Z,57.55334
2022-11-29T10:23:08.780Z,58.07192
2022-11-29T10:28:10.511Z,55.8588
2022-11-29T10:33:12.355Z,56.5323
2022-11-29T10:38:30.347Z,57.17087
2022-11-29T10:43:33.328Z,56.88959
2022-11-29T10:48:35.116Z,56.59738
2022-11-29T10:53:36.820Z,55.83921
2022-11-29T10:58:38.551Z,55.41517
2022-11-29T11:03:40.208Z,56.64993
2022-11-29T11:08:42.241Z,56.54089
2022-11-29T11:13:43.955Z,57.70494
2022-11-29T11:18:45.671Z,57.77622
2022-11-29T11:23:47.421Z,57.52992
2022-11-29T11:28:49.199Z,57.00873
2022-11-29T11:33:50.842Z,55.17367
2022-11-29T11:38:52.611Z,56.55719
2022-11-29T11:43:54.258Z,56.54295
2022-11-29T11:48:56.000Z,56.29357
2022-11-29T11:53:57.946Z,57.42711
2022-11-29T11:58:59.637Z,55.87506
2022-11-29T12:04:01.529Z,55.0521
2022-11-29T12:09:03.264Z,57.89154
2022-11-29T12:14:04.991Z,57.34447
2022-11-29T12:19:06.692Z,57.18115
2022-11-29T12:24:08.506Z,57.12784
2022-11-29T12:29:10.288Z,58.21597
2022-11-29T12:34:12.072Z,56.36027
2022-11-29T12:39:13.974Z,55.40045
2022-11-29T12:44:15.677Z,55.94478
2022-11-29T12:49:17.388Z,57.55064
2022-11-29T12:54:19.067Z,55.99556
2022-11-29T12:59:20.869Z,56.59672
2022-11-29T13:04:22.600Z,55.58939
2022-11-29T13:09:24.269Z,55.25419
2022-11-29T13:14:43.182Z,55.83004
2022-11-29T13:19:45.663Z,55.13379
2022-11-29T13:24:47.807Z,54.22788
2022-11-29T13:29:49.839Z,61.84726
2022-11-29T13:34:51.600Z,63.61177
2022-11-29T13:39:53.520Z,66.50671
2022-11-29T13:44:55.271Z,65.87713
2022-11-29T13:49:57.059Z,65.57731
2022-11-29T13:54:58.843Z,62.89717
2022-11-29T14:00:00.727Z,61.30818
2022-11-29T14:05:02.591Z,65.10843
2022-11-29T14:10:04.413Z,68.03247
2022-11-29T14:15:06.204Z,69.23471
2022-11-29T14:20:08.542Z,69.34299
2022-11-29T14:25:28.101Z,69.702
2022-11-29T14:30:51.284Z,65.20199
2022-11-29T14:35:52.912Z,63.27141
2022-11-29T14:40:56.369Z,67.84046
2022-11-29T14:45:58.143Z,66.45596
2022-11-29T14:50:59.763Z,64.83067
2022-11-29T14:56:01.439Z,65.11147
2022-11-29T15:01:09.667Z,64.74548
2022-11-29T15:06:12.287Z,64.72332
2022-11-29T15:11:14.086Z,66.03281
2022-11-29T15:16:15.787Z,63.05085
2022-11-29T15:21:17.474Z,60.64382
2022-11-29T15:26:19.195Z,63.01329
2022-11-29T15:31:20.971Z,65.92305
2022-11-29T15:36:22.694Z,68.39734
2022-11-29T15:41:24.324Z,68.3128
2022-11-29T15:46:25.993Z,67.0876
2022-11-29T15:51:27.625Z,68.92643
2022-11-29T15:56:29.203Z,64.99406
2022-11-29T16:01:31.172Z,65.42283
2022-11-29T16:06:32.862Z,65.49197
2022-11-29T16:11:34.504Z,65.73047
2022-11-29T16:16:36.251Z,60.89908
2022-11-29T16:21:38.027Z,58.79048
2022-11-29T16:26:39.833Z,60.34814
2022-11-29T16:31:41.769Z,62.9619
2022-11-29T16:36:43.440Z,64.4909
2022-11-29T16:41:45.061Z,66.3251
2022-11-29T16:46:46.687Z,63.63468
2022-11-29T16:51:48.557Z,67.23487
2022-11-29T16:56:50.179Z,64.21359
2022-11-29T17:01:51.803Z,61.3258
2022-11-29T17:06:53.655Z,61.52021
2022-11-29T17:11:55.331Z,60.78271
2022-11-29T17:16:57.112Z,60.7122
2022-11-29T17:21:58.776Z,60.2218
2022-11-29T17:27:00.389Z,61.84474
2022-11-29T17:32:02.135Z,62.35676
2022-11-29T17:37:03.855Z,61.41381
2022-11-29T17:42:05.468Z,62.2412
2022-11-29T17:47:07.197Z,60.80697
2022-11-29T17:52:08.841Z,64.55942
2022-11-29T17:57:10.486Z,65.97496
2022-11-29T18:02:12.185Z,66.01395
2022-11-29T18:07:13.862Z,63.41876
2022-11-29T18:12:15.489Z,61.12293
2022-11-29T18:17:17.115Z,61.42267
2022-11-29T18:22:18.731Z,59.49526
2022-11-29T18:27:20.338Z,59.76123
2022-11-29T18:32:21.994Z,59.59662
2022-11-29T18:37:46.168Z,58.18943
2022-11-29T18:42:59.096Z,61.62491
2022-11-29T18:48:00.745Z,60.73784
2022-11-29T18:53:02.438Z,62.99801
2022-11-29T18:58:04.235Z,62.9134
2022-11-29T19:03:05.878Z,60.86114
2022-11-29T19:08:07.483Z,58.48568
2022-11-29T19:13:09.124Z,60.08168
2022-11-29T19:18:10.854Z,61.29177
2022-11-29T19:23:12.898Z,59.89193
2022-11-29T19:28:14.701Z,60.06893
2022-11-29T19:33:16.340Z,60.42875
2022-11-29T19:38:17.973Z,60.9504
2022-11-29T19:43:19.827Z,62.47703
2022-11-29T19:48:21.483Z,61.79629
2022-11-29T19:53:23.185Z,62.76259
2022-11-29T19:58:24.887Z,60.6091
2022-11-29T20:03:26.593Z,59.14597
2022-11-29T20:08:28.207Z,60.11059
2022-11-29T20:13:29.891Z,61.28516
2022-11-29T20:18:31.596Z,60.88429
2022-11-29T20:23:33.352Z,61.28555
2022-11-29T20:28:35.052Z,58.4995
2022-11-29T20:33:36.748Z,58.18649
2022-11-29T20:38:38.594Z,58.03553
2022-11-29T20:43:40.483Z,59.86912
2022-11-29T20:48:42.093Z,59.43292
2022-11-29T20:53:43.758Z,58.93226
2022-11-29T20:58:45.357Z,61.08606
2022-11-29T21:03:47.053Z,59.3509
2022-11-29T21:08:48.886Z,60.00456
2022-11-29T21:13:50.550Z,60.11705
2022-11-29T21:18:52.301Z,58.49962
2022-11-29T21:23:53.955Z,58.64881
2022-11-29T21:28:55.790Z,59.63929
2022-11-29T21:33:57.483Z,62.12404
2022-11-29T21:39:03.664Z,59.28135
2022-11-29T21:44:08.035Z,59.52181
2022-11-29T21:49:10.011Z,58.85382
2022-11-29T21:54:11.939Z,58.07696
2022-11-29T21:59:13.634Z,58.17628
2022-11-29T22:04:15.333Z,61.37049
2022-11-29T22:09:17.116Z,61.79746
2022-11-29T22:14:18.973Z,59.98406
2022-11-29T22:19:20.731Z,59.80592
2022-11-29T22:24:22.373Z,58.72876
2022-11-29T22:29:24.083Z,59.72406
2022-11-29T22:34:25.959Z,59.1047
2022-11-29T22:39:27.576Z,58.55165
2022-11-29T22:44:29.302Z,61.36184
2022-11-29T22:49:31.051Z,60.71596
2022-11-29T22:54:32.662Z,60.51165
2022-11-29T22:59:34.269Z,58.89867
2022-11-29T23:04:35.973Z,58.87475
2022-11-29T23:09:37.513Z,61.02953
2022-11-29T23:14:39.166Z,60.07825
2022-11-29T23:19:40.821Z,60.44586
2022-11-29T23:24:42.473Z,60.80813
2022-11-29T23:29:44.167Z,61.0202
2022-11-29T23:34:46.119Z,59.90052
2022-11-29T23:39:47.956Z,60.07791
2022-11-29T23:44:49.585Z,63.37707
2022-11-29T23:49:51.154Z,64.34745
2022-11-29T23:54:52.951Z,60.4505
2022-11-29T23:59:54.696Z,60.01021
